createdAt,value
2022-08-10T00:02:20.107Z,101781.31
2022-08-10T00:05:11.561Z,101783.25
2022-08-10T00:07:42.074Z,101783.98
2022-08-10T00:10:14.638Z,101781.70
2022-08-10T00:12:54.432Z,101781.39
2022-08-10T00:15:57.274Z,101782.46
2022-08-10T00:18:36.306Z,101778.48
2022-08-10T00:21:08.524Z,101780.96
2022-08-10T00:23:40.167Z,101776.25
2022-08-10T00:30:00.829Z,101782.77
2022-08-10T00:32:31.047Z,101776.55
2022-08-10T00:35:01.497Z,101777.77
2022-08-10T00:37:31.969Z,101778.99
2022-08-10T00:40:02.623Z,101780.92
2022-08-10T00:42:33.243Z,101782.17
2022-08-10T00:45:03.818Z,101787.08
2022-08-10T00:47:36.695Z,101785.36
2022-08-10T00:50:10.126Z,101790.26
2022-08-10T00:52:42.104Z,101789.39
2022-08-10T00:55:13.056Z,101789.77
2022-08-10T00:57:44.144Z,101787.18
2022-08-10T01:00:15.156Z,101788.78
2022-08-10T01:02:47.990Z,101792.98
2022-08-10T01:05:19.750Z,101795.23
2022-08-10T01:08:07.986Z,101797.02
2022-08-10T01:11:07.598Z,101797.90
2022-08-10T01:14:11.156Z,101798.11
2022-08-10T01:17:07.746Z,101793.98
2022-08-10T01:20:04.593Z,101798.86
2022-08-10T01:22:53.495Z,101796.45
2022-08-10T01:26:12.391Z,101803.94
2022-08-10T01:29:24.115Z,101807.44
2022-08-10T01:32:01.301Z,101804.48
2022-08-10T01:34:41.845Z,101804.65
2022-08-10T01:41:05.187Z,101805.20
2022-08-10T01:43:42.403Z,101802.23
2022-08-10T01:46:16.346Z,101804.34
2022-08-10T01:48:53.008Z,101808.36
2022-08-10T01:51:42.343Z,101807.29
2022-08-10T01:54:15.463Z,101805.23
2022-08-10T01:56:48.442Z,101805.59
2022-08-10T01:59:25.522Z,101810.48
2022-08-10T02:02:13.027Z,101809.64
2022-08-10T02:08:34.606Z,101808.09
2022-08-10T02:11:05.229Z,101808.98
2022-08-10T02:13:36.784Z,101809.68
2022-08-10T02:16:08.667Z,101805.52
2022-08-10T02:18:40.883Z,101805.53
2022-08-10T02:21:17.086Z,101810.41
2022-08-10T02:23:59.394Z,101807.81
2022-08-10T02:26:32.986Z,101804.52
2022-08-10T02:29:04.200Z,101805.39
2022-08-10T02:31:36.429Z,101805.56
2022-08-10T02:34:09.724Z,101806.45
2022-08-10T02:36:53.766Z,101811.50
2022-08-10T02:39:26.649Z,101815.70
2022-08-10T02:42:18.382Z,101811.71
2022-08-10T02:45:29.146Z,101811.88
2022-08-10T02:48:07.395Z,101812.59
2022-08-10T02:50:40.745Z,101811.21
2022-08-10T02:56:40.465Z,101814.87
2022-08-10T02:59:17.160Z,101812.45
2022-08-10T03:01:51.576Z,101814.73
2022-08-10T03:04:55.914Z,101816.63
2022-08-10T03:07:20.009Z,101815.41
2022-08-10T03:10:14.585Z,101818.55
2022-08-10T03:12:54.584Z,101821.88
2022-08-10T03:15:26.735Z,101822.23
2022-08-10T03:17:59.044Z,101821.02
2022-08-10T03:20:40.209Z,101825.32
2022-08-10T03:23:17.271Z,101824.29
2022-08-10T03:25:55.810Z,101822.55
2022-08-10T03:28:29.549Z,101824.12
2022-08-10T03:31:02.031Z,101825.34
2022-08-10T03:33:35.429Z,101829.33
2022-08-10T03:36:43.936Z,101830.20
2022-08-10T03:39:03.368Z,101831.76
2022-08-10T03:41:58.098Z,101835.42
2022-08-10T03:44:34.026Z,101837.67
2022-08-10T03:47:16.444Z,101836.45
2022-08-10T03:49:49.749Z,101835.94
2022-08-10T03:52:21.656Z,101837.84
2022-08-10T03:54:53.025Z,101838.38
2022-08-10T03:57:24.574Z,101840.98
2022-08-10T03:59:55.234Z,101841.15
2022-08-10T04:02:45.314Z,101844.98
2022-08-10T04:05:18.690Z,101840.10
2022-08-10T04:07:49.150Z,101838.54
2022-08-10T04:10:19.869Z,101844.44
2022-08-10T04:13:12.315Z,101846.52
2022-08-10T04:15:43.066Z,101850.17
2022-08-10T04:18:13.802Z,101848.63
2022-08-10T04:21:12.673Z,101849.48
2022-08-10T04:23:49.915Z,101849.48
2022-08-10T04:26:23.704Z,101852.79
2022-08-10T04:29:12.212Z,101853.84
2022-08-10T04:31:48.230Z,101848.11
2022-08-10T04:34:19.025Z,101847.75
2022-08-10T04:36:55.117Z,101850.18
2022-08-10T04:39:58.464Z,101847.05
2022-08-10T04:42:29.185Z,101844.95
2022-08-10T04:44:59.369Z,101852.42
2022-08-10T04:47:57.427Z,101851.75
2022-08-10T04:50:20.159Z,101854.70
2022-08-10T04:52:55.068Z,101857.66
2022-08-10T04:55:25.536Z,101860.78
2022-08-10T04:57:58.353Z,101861.30
2022-08-10T05:00:28.773Z,101858.52
2022-08-10T05:03:01.717Z,101859.40
2022-08-10T05:05:32.238Z,101855.55
2022-08-10T05:08:02.744Z,101855.73
2022-08-10T05:10:33.281Z,101854.54
2022-08-10T05:13:05.489Z,101852.96
2022-08-10T05:15:36.574Z,101856.95
2022-08-10T05:18:09.552Z,101856.27
2022-08-10T05:20:42.065Z,101856.45
2022-08-10T05:23:12.589Z,101858.02
2022-08-10T05:26:28.775Z,101859.56
2022-08-10T05:28:59.754Z,101858.54
2022-08-10T05:31:30.271Z,101859.75
2022-08-10T05:34:00.579Z,101857.67
2022-08-10T05:36:37.995Z,101860.09
2022-08-10T05:39:08.837Z,101858.72
2022-08-10T05:41:44.786Z,101862.21
2022-08-10T05:44:17.183Z,101864.28
2022-08-10T05:47:12.644Z,101862.53
2022-08-10T05:49:43.241Z,101865.85
2022-08-10T05:52:13.527Z,101863.77
2022-08-10T05:54:44.474Z,101869.85
2022-08-10T05:57:17.606Z,101868.98
2022-08-10T06:00:36.318Z,101867.57
2022-08-10T06:03:09.705Z,101862.69
2022-08-10T06:05:43.786Z,101858.52
2022-08-10T06:08:28.808Z,101860.77
2022-08-10T06:12:23.922Z,101861.63
2022-08-10T06:14:13.626Z,101862.33
2022-08-10T06:16:47.569Z,101860.05
2022-08-10T06:22:54.741Z,101850.61
2022-08-10T06:26:10.141Z,101849.02
2022-08-10T06:28:18.860Z,101846.36
2022-08-10T06:31:11.353Z,101848.94
2022-08-10T06:33:43.667Z,101850.47
2022-08-10T06:36:15.498Z,101850.42
2022-08-10T06:38:48.037Z,101849.31
2022-08-10T06:50:58.671Z,101851.88
2022-08-10T06:53:53.707Z,101849.41
2022-08-10T06:56:36.186Z,101852.83
2022-08-10T07:00:44.262Z,101852.82
2022-08-10T07:03:18.256Z,101847.66
2022-08-10T07:05:52.392Z,101849.95
2022-08-10T07:08:25.255Z,101846.09
2022-08-10T07:10:57.623Z,101847.19
2022-08-10T07:14:14.085Z,101847.89
2022-08-10T07:16:33.725Z,101848.39
2022-08-10T07:19:05.247Z,101850.30
2022-08-10T07:21:36.561Z,101852.75
2022-08-10T07:28:28.992Z,101854.35
2022-08-10T07:31:00.199Z,101851.49
2022-08-10T07:33:31.015Z,101847.28
2022-08-10T07:36:14.077Z,101848.85
2022-08-10T07:38:45.911Z,101845.11
2022-08-10T07:41:20.112Z,101848.25
2022-08-10T07:44:33.288Z,101846.55
2022-08-10T07:47:52.487Z,101841.66
2022-08-10T07:50:22.765Z,101845.12
2022-08-10T07:52:56.696Z,101849.56
2022-08-10T07:56:03.965Z,101848.94
2022-08-10T07:58:20.529Z,101846.89
2022-08-10T08:00:55.969Z,101848.14
2022-08-10T08:03:31.216Z,101851.48
2022-08-10T08:06:09.089Z,101853.84
2022-08-10T08:08:46.193Z,101852.80
2022-08-10T08:11:25.609Z,101849.14
2022-08-10T08:13:57.693Z,101847.48
2022-08-10T08:16:29.032Z,101846.27
2022-08-10T08:24:10.317Z,101839.73
2022-08-10T08:24:43.624Z,101839.17
2022-08-10T08:27:20.220Z,101834.70
2022-08-10T08:29:52.607Z,101832.48
2022-08-10T08:32:26.469Z,101831.44
2022-08-10T08:35:04.111Z,101835.55
2022-08-10T08:38:32.123Z,101833.39
2022-08-10T08:40:30.492Z,101833.70
2022-08-10T08:44:22.278Z,101832.29
2022-08-10T08:48:05.253Z,101833.31
2022-08-10T08:50:37.975Z,101832.36
2022-08-10T08:54:01.901Z,101830.29
2022-08-10T08:56:31.618Z,101826.70
2022-08-10T08:59:29.874Z,101825.30
2022-08-10T09:02:41.318Z,101823.91
2022-08-10T09:06:07.769Z,101826.11
2022-08-10T09:09:09.792Z,101818.44
2022-08-10T09:12:14.383Z,101819.19
2022-08-10T09:14:51.982Z,101813.04
2022-08-10T09:17:45.858Z,101810.80
2022-08-10T09:20:43.656Z,101810.91
2022-08-10T09:24:01.918Z,101810.42
2022-08-10T09:31:21.610Z,101802.40
2022-08-10T09:36:19.619Z,101804.33
2022-08-10T09:36:56.522Z,101807.81
2022-08-10T09:40:50.091Z,101809.78
2022-08-10T09:42:40.037Z,101806.20
2022-08-10T09:46:01.343Z,101804.66
2022-08-10T09:48:47.708Z,101801.77
2022-08-10T09:51:45.731Z,101800.38
2022-08-10T09:55:02.050Z,101792.27
2022-08-10T09:57:57.054Z,101788.48
2022-08-10T10:01:02.161Z,101782.48
2022-08-10T10:04:17.177Z,101781.60
2022-08-10T10:07:07.398Z,101778.34
2022-08-10T10:10:03.508Z,101771.02
2022-08-10T10:12:55.008Z,101763.23
2022-08-10T10:16:09.387Z,101766.35
2022-08-10T10:19:44.084Z,101759.60
2022-08-10T10:22:31.895Z,101754.35
2022-08-10T10:25:19.961Z,101757.31
2022-08-10T10:28:00.710Z,101757.00
2022-08-10T10:30:40.697Z,101759.86
2022-08-10T10:33:16.875Z,101758.86
2022-08-10T10:35:55.357Z,101756.63
2022-08-10T10:38:38.910Z,101757.71
2022-08-10T10:41:18.007Z,101748.45
2022-08-10T10:44:22.575Z,101753.45
2022-08-10T10:47:14.930Z,101748.62
2022-08-10T10:50:03.884Z,101749.54
2022-08-10T10:53:00.384Z,101749.09
2022-08-10T10:56:13.539Z,101741.65
2022-08-10T10:58:49.284Z,101736.14
2022-08-10T11:01:50.191Z,101732.35
2022-08-10T11:04:28.722Z,101733.14
2022-08-10T11:07:35.790Z,101731.84
2022-08-10T11:10:31.968Z,101726.29
2022-08-10T11:14:25.409Z,101723.29
2022-08-10T11:16:10.999Z,101721.98
2022-08-10T11:18:56.550Z,101717.65
2022-08-10T11:21:55.531Z,101719.37
2022-08-10T11:24:48.017Z,101720.17
2022-08-10T11:27:54.500Z,101716.45
2022-08-10T11:30:35.487Z,101711.86
2022-08-10T11:33:30.918Z,101716.39
2022-08-10T11:36:09.255Z,101711.66
2022-08-10T11:39:21.570Z,101715.54
2022-08-10T11:42:18.542Z,101713.79
2022-08-10T11:45:04.133Z,101714.71
2022-08-10T11:47:55.000Z,101712.70
2022-08-10T11:50:26.922Z,101711.67
2022-08-10T11:53:19.273Z,101703.56
2022-08-10T11:55:58.908Z,101702.66
2022-08-10T11:58:51.655Z,101702.09
2022-08-10T12:01:37.857Z,101697.61
2022-08-10T12:04:13.704Z,101696.52
2022-08-10T12:06:56.204Z,101688.30
2022-08-10T12:10:09.738Z,101688.15
2022-08-10T12:12:21.367Z,101684.27
2022-08-10T12:18:22.055Z,101680.56
2022-08-10T12:21:14.102Z,101684.36
2022-08-10T12:24:02.856Z,101683.98
2022-08-10T12:27:27.397Z,101679.85
2022-08-10T12:30:02.411Z,101678.11
2022-08-10T12:33:03.466Z,101675.12
2022-08-10T12:36:08.256Z,101670.23
2022-08-10T12:38:44.529Z,101669.58
2022-08-10T12:41:55.339Z,101668.61
2022-08-10T12:44:41.402Z,101658.39
2022-08-10T12:47:31.084Z,101649.52
2022-08-10T12:50:33.812Z,101646.78
2022-08-10T12:53:20.143Z,101647.46
2022-08-10T12:55:54.257Z,101645.33
2022-08-10T13:06:32.722Z,101645.52
2022-08-10T13:09:13.548Z,101645.41
2022-08-10T13:12:36.739Z,101643.73
2022-08-10T13:14:48.135Z,101640.54
2022-08-10T13:21:45.892Z,101633.30
2022-08-10T13:24:25.797Z,101626.61
2022-08-10T13:27:26.781Z,101622.59
2022-08-10T13:32:03.576Z,101620.20
2022-08-10T13:38:49.236Z,101613.48
2022-08-10T13:41:21.212Z,101613.55
2022-08-10T13:44:40.383Z,101611.86
2022-08-10T13:47:15.738Z,101614.85
2022-08-10T13:50:00.835Z,101608.80
2022-08-10T13:52:38.538Z,101612.11
2022-08-10T13:55:23.301Z,101609.84
2022-08-10T13:58:06.029Z,101611.44
2022-08-10T14:01:00.676Z,101614.87
2022-08-10T14:03:39.895Z,101610.12
2022-08-10T14:06:19.274Z,101609.67
2022-08-10T14:09:01.870Z,101601.13
2022-08-10T14:11:33.864Z,101599.34
2022-08-10T14:14:11.118Z,101599.40
2022-08-10T14:16:46.336Z,101596.66
2022-08-10T14:19:35.295Z,101594.10
2022-08-10T14:22:10.895Z,101597.52
2022-08-10T14:24:42.045Z,101592.81
2022-08-10T14:27:16.288Z,101593.26
2022-08-10T14:29:57.280Z,101592.74
2022-08-10T14:32:32.457Z,101592.45
2022-08-10T14:36:20.848Z,101594.54
2022-08-10T14:38:28.314Z,101588.41
2022-08-10T14:41:02.760Z,101590.55
2022-08-10T14:43:58.015Z,101591.40
2022-08-10T14:46:32.325Z,101588.36
2022-08-10T14:49:26.292Z,101581.56
2022-08-10T14:52:02.158Z,101581.63
2022-08-10T14:54:35.069Z,101579.91
2022-08-10T14:57:10.840Z,101582.19
2022-08-10T15:00:24.696Z,101580.91
2022-08-10T15:02:52.925Z,101576.95
2022-08-10T15:05:47.185Z,101574.38
2022-08-10T15:08:24.558Z,101574.93
2022-08-10T15:12:11.996Z,101574.84
2022-08-10T15:14:42.653Z,101565.98
2022-08-10T15:17:36.395Z,101565.98
2022-08-10T15:20:35.410Z,101563.65
2022-08-10T15:23:35.557Z,101562.36
2022-08-10T15:26:51.062Z,101560.36
2022-08-10T15:29:57.021Z,101563.68
2022-08-10T15:33:04.558Z,101565.25
2022-08-10T15:36:30.965Z,101561.34
2022-08-10T15:40:20.914Z,101562.38
2022-08-10T15:42:40.383Z,101562.09
2022-08-10T15:45:46.464Z,101562.70
2022-08-10T15:48:47.994Z,101557.59
2022-08-10T15:51:54.291Z,101559.03
2022-08-10T15:55:00.445Z,101562.50
2022-08-10T15:58:00.675Z,101557.66
2022-08-10T16:01:04.800Z,101561.95
2022-08-10T16:04:32.385Z,101562.44
2022-08-10T16:07:21.558Z,101563.13
2022-08-10T16:10:38.860Z,101564.37
2022-08-10T16:14:00.302Z,101560.46
2022-08-10T16:16:11.035Z,101559.77
2022-08-10T16:18:45.464Z,101560.44
2022-08-10T16:21:41.882Z,101555.35
2022-08-10T16:24:16.875Z,101557.83
2022-08-10T16:26:54.589Z,101559.60
2022-08-10T16:29:31.484Z,101559.44
2022-08-10T16:32:27.956Z,101554.40
2022-08-10T16:35:00.616Z,101558.41
2022-08-10T16:38:27.717Z,101557.25
2022-08-10T16:42:04.081Z,101563.92
2022-08-10T16:45:04.246Z,101563.20
2022-08-10T16:47:49.307Z,101563.29
2022-08-10T16:50:42.060Z,101564.55
2022-08-10T16:53:23.037Z,101565.52
2022-08-10T16:55:58.828Z,101565.98
2022-08-10T16:58:35.852Z,101566.58
2022-08-10T17:01:34.482Z,101565.41
2022-08-10T17:04:13.828Z,101566.17
2022-08-10T17:07:01.773Z,101571.09
2022-08-10T17:09:35.991Z,101571.25
2022-08-10T17:12:12.068Z,101569.61
2022-08-10T17:15:11.745Z,101568.63
2022-08-10T17:17:49.876Z,101568.52
2022-08-10T17:20:41.176Z,101562.70
2022-08-10T17:23:17.018Z,101561.80
2022-08-10T17:26:14.141Z,101566.41
2022-08-10T17:29:57.879Z,101565.97
2022-08-10T17:32:52.812Z,101565.54
2022-08-10T17:35:55.337Z,101561.90
2022-08-10T17:41:37.205Z,101568.75
2022-08-10T17:44:10.335Z,101566.98
2022-08-10T17:46:44.158Z,101570.42
2022-08-10T17:49:37.544Z,101575.44
2022-08-10T17:56:42.044Z,101578.91
2022-08-10T17:59:18.543Z,101580.96
2022-08-10T18:02:02.350Z,101580.38
2022-08-10T18:04:41.904Z,101585.73
2022-08-10T18:07:14.207Z,101588.69
2022-08-10T18:09:56.219Z,101591.42
2022-08-10T18:16:20.369Z,101602.66
2022-08-10T18:19:17.443Z,101604.40
2022-08-10T18:21:59.188Z,101612.73
2022-08-10T18:25:04.558Z,101611.17
2022-08-10T18:28:01.657Z,101614.62
2022-08-10T18:30:45.942Z,101613.33
2022-08-10T18:33:18.423Z,101614.67
2022-08-10T18:35:52.016Z,101618.15
2022-08-10T18:38:57.836Z,101619.23
2022-08-10T18:45:58.597Z,101628.83
2022-08-10T19:05:59.755Z,101639.36
2022-08-10T19:09:09.630Z,101639.59
2022-08-10T19:13:21.705Z,101643.52
2022-08-10T19:20:32.977Z,101651.75
2022-08-10T19:23:33.234Z,101653.20
2022-08-10T19:26:44.200Z,101653.95
2022-08-10T19:30:12.440Z,101652.43
2022-08-10T19:36:26.484Z,101664.13
2022-08-10T19:39:17.976Z,101660.04
2022-08-10T19:42:31.078Z,101659.55
2022-08-10T19:46:01.356Z,101656.84
2022-08-10T19:48:59.235Z,101660.39
2022-08-10T19:52:10.972Z,101656.77
2022-08-10T19:55:26.916Z,101665.27
2022-08-10T19:58:24.146Z,101669.17
2022-08-10T20:01:22.922Z,101666.46
2022-08-10T20:04:06.309Z,101670.49
2022-08-10T20:06:48.204Z,101665.29
2022-08-10T20:09:47.761Z,101661.81
2022-08-10T20:12:53.774Z,101656.95
2022-08-10T20:15:48.110Z,101658.36
2022-08-10T20:18:30.872Z,101659.66
2022-08-10T20:21:31.243Z,101657.06
2022-08-10T20:24:34.318Z,101658.70
2022-08-10T20:28:00.942Z,101658.95
2022-08-10T20:31:17.502Z,101654.61
2022-08-10T20:34:06.098Z,101649.95
2022-08-10T20:37:02.360Z,101649.66
2022-08-10T20:39:58.135Z,101647.14
2022-08-10T20:42:49.033Z,101646.20
2022-08-10T20:45:58.274Z,101641.77
2022-08-10T20:49:08.135Z,101641.71
2022-08-10T20:52:11.192Z,101644.80
2022-08-10T20:54:56.247Z,101646.29
2022-08-10T20:57:55.353Z,101649.13
2022-08-10T21:00:46.397Z,101650.41
2022-08-10T21:04:15.473Z,101651.33
2022-08-10T21:07:58.228Z,101650.54
2022-08-10T21:10:39.323Z,101646.05
2022-08-10T21:13:40.254Z,101647.38
2022-08-10T21:16:35.175Z,101647.27
2022-08-10T21:19:33.377Z,101647.51
2022-08-10T21:22:32.068Z,101651.59
2022-08-10T21:25:19.138Z,101646.58
2022-08-10T21:28:06.745Z,101643.52
2022-08-10T21:31:36.921Z,101643.07
2022-08-10T21:34:34.689Z,101645.94
2022-08-10T21:37:39.853Z,101643.39
2022-08-10T21:40:32.448Z,101637.18
2022-08-10T21:43:46.296Z,101641.63
2022-08-10T21:46:58.882Z,101636.80
2022-08-10T21:50:07.087Z,101631.06
2022-08-10T21:53:16.747Z,101630.31
2022-08-10T21:56:15.762Z,101634.02
2022-08-10T21:59:12.642Z,101637.07
2022-08-10T22:09:09.676Z,101640.14
2022-08-10T22:12:31.170Z,101641.83
2022-08-10T22:19:03.023Z,101647.19
2022-08-10T22:22:41.051Z,101643.81
2022-08-10T22:25:51.983Z,101645.09
2022-08-10T22:28:54.977Z,101647.44
2022-08-10T22:31:25.895Z,101644.86
2022-08-10T22:31:50.789Z,101648.18
2022-08-10T22:35:13.037Z,101643.18
2022-08-10T22:38:27.960Z,101648.35
2022-08-10T22:41:46.951Z,101647.91
2022-08-10T22:44:45.796Z,101647.08
2022-08-10T22:47:51.752Z,101645.42
2022-08-10T22:50:36.777Z,101641.48
2022-08-10T22:53:24.990Z,101642.95
2022-08-10T22:56:19.847Z,101643.52
2022-08-10T22:59:03.618Z,101639.55
2022-08-10T23:02:08.966Z,101637.19
2022-08-10T23:05:00.734Z,101638.66
2022-08-10T23:07:41.480Z,101637.84
2022-08-10T23:10:34.616Z,101635.15
2022-08-10T23:13:26.383Z,101632.27
2022-08-10T23:16:50.032Z,101630.12
2022-08-10T23:19:52.800Z,101626.07
2022-08-10T23:22:48.670Z,101628.75
2022-08-10T23:25:35.751Z,101622.38
2022-08-10T23:28:39.343Z,101622.67
2022-08-10T23:32:01.103Z,101625.99
2022-08-10T23:34:27.727Z,101625.11
2022-08-10T23:37:20.606Z,101627.05
2022-08-10T23:40:13.683Z,101627.55
2022-08-10T23:42:56.577Z,101628.25
2022-08-10T23:45:53.579Z,101625.98
2022-08-10T23:48:33.577Z,101625.50
2022-08-10T23:51:26.608Z,101625.20
2022-08-10T23:54:27.926Z,101624.23
2022-08-10T23:57:11.478Z,101627.71
